WetterOnline ( http://www.wetteronline.de )

Wetter aktuell Rostock

Aktuelles Wetter: Rostock-Warnemünde (10m)

6-stündlich | Neueste Meldungen
Ortszeit Temperatur Wetter
So, 23.09. 2:00 10.5° C fast wolkenlos
Sa, 22.09. 20:00 11.5° C wolkig
Sa, 22.09. 14:00 14.6° C leichter Regen
Sa, 22.09. 8:00 10.3° C wolkenlos
Sa, 22.09. 2:00 11.2° C wolkig
Fr, 21.09. 20:00 13.8° C bedeckt
Fr, 21.09. 14:00 25.3° C bedeckt
Fr, 21.09. 8:00 18.0° C leicht bewölkt
Ortszeit Temperatur Wetter
So, 23.09. 6:00 9.3° C wolkenlos
So, 23.09. 5:50 9.3° C wolkenlos
So, 23.09. 5:40 9.3° C leicht bewölkt
So, 23.09. 5:30 9.6° C bewölkt
So, 23.09. 5:20 9.6° C bewölkt
So, 23.09. 5:10 9.6° C wolkig
So, 23.09. 5:00 9.6° C leicht bewölkt
So, 23.09. 4:30 9.6° C wolkenlos
So, 23.09. 4:00 9.7° C leicht bewölkt
So, 23.09. 3:30 9.4° C leicht bewölkt
So, 23.09. 3:00 9.6° C leicht bewölkt
Ortszeit Relative Feuchte Sichtweite
So, 23.09. 2:00 85% 30 km
Sa, 22.09. 20:00 80% 45 km
Sa, 22.09. 14:00 67% 27 km
Sa, 22.09. 8:00 83% 55 km
Sa, 22.09. 2:00 67% 65 km
Fr, 21.09. 20:00 76% 50 km
Fr, 21.09. 14:00 40% 25 km
Fr, 21.09. 8:00 64% 26 km
Ortszeit Relative Feuchte Sichtweite
So, 23.09. 6:00 90% 10 km
So, 23.09. 5:50 90% -
So, 23.09. 5:40 90% -
So, 23.09. 5:30 88% 11 km
So, 23.09. 5:20 88% -
So, 23.09. 5:10 88% -
So, 23.09. 5:00 88% 13 km
So, 23.09. 4:30 88% 12 km
So, 23.09. 4:00 88% 15 km
So, 23.09. 3:30 89% 15 km
So, 23.09. 3:00 89% 21 km
Ortszeit Niederschlagsmenge Niederschlagsart
So, 23.09. 2:00 0.1 l/m2 in 6 Std. Regen
Sa, 22.09. 20:00 1 l/m2 in 12 Std. Regen
Sa, 22.09. 14:00 0.4 l/m2 in 6 Std. Regen
Sa, 22.09. 8:00 1 l/m2 in 12 Std. -
Sa, 22.09. 2:00 1 l/m2 in 6 Std. Regen
Fr, 21.09. 20:00 8 l/m2 in 12 Std. Regen
Fr, 21.09. 14:00 0.0 l/m2 in 6 Std. -
Fr, 21.09. 8:00 0.0 l/m2 in 12 Std. -
Ortszeit Niederschlagsmenge Niederschlagsart
So, 23.09. 6:00 0.0 l/m2 in 1 Std. -
So, 23.09. 5:50 keine Meldung -
So, 23.09. 5:40 keine Meldung -
So, 23.09. 5:30 0.0 l/m2 in 1 Std. -
So, 23.09. 5:20 keine Meldung -
So, 23.09. 5:10 keine Meldung -
So, 23.09. 5:00 0.0 l/m2 in 1 Std. -
So, 23.09. 4:30 0.0 l/m2 in 1 Std. -
So, 23.09. 4:00 0.0 l/m2 in 1 Std. -
So, 23.09. 3:30 0.0 l/m2 in 1 Std. -
So, 23.09. 3:00 0.0 l/m2 in 1 Std. -
Ortszeit Stärke Spitze Richtung
km/h Bft. km/h Grad Sektor
So, 23.09. 2:00 15 3 35 220° SW
Sa, 22.09. 20:00 17 3 59 210° SW
Sa, 22.09. 14:00 20 4 46 250° W
Sa, 22.09. 8:00 14 3 43 210° SW
Sa, 22.09. 2:00 20 4 56 220° SW
Fr, 21.09. 20:00 19 3 91 250° W
Fr, 21.09. 14:00 31 5 65 200° S
Fr, 21.09. 8:00 15 3 35 170° S
Ortszeit Stärke Spitze Richtung
km/h Bft. km/h Grad Sektor
So, 23.09. 6:00 14 3 32 220° SW
So, 23.09. 5:50 14 3 - 220° SW
So, 23.09. 5:40 15 3 - 220° SW
So, 23.09. 5:30 17 3 31 220° SW
So, 23.09. 5:20 17 3 - 220° SW
So, 23.09. 5:10 18 3 - 220° SW
So, 23.09. 5:00 18 3 32 220° SW
So, 23.09. 4:30 17 3 28 220° SW
So, 23.09. 4:00 15 3 30 220° SW
So, 23.09. 3:30 14 3 25 220° SW
So, 23.09. 3:00 14 3 29 220° SW
Ortszeit Untergrenze Bedeckung Gattung
total tief tief mittel hoch
So, 23.09. 2:00 1500 m 1/8 1/8 - - -
Sa, 22.09. 20:00 1170 m 6/8 6/8 - - -
Sa, 22.09. 14:00 1080 m 7/8 7/8 - - -
Sa, 22.09. 8:00 1500 m 0/8 0/8 - - -
Sa, 22.09. 2:00 2700 m 8/8 3/8 - - -
Fr, 21.09. 20:00 930 m 8/8 8/8 - - -
Fr, 21.09. 14:00 3000 m 8/8 8/8 - - -
Fr, 21.09. 8:00 10500 m 4/8 0/8 - - -
Ortszeit Bedeckungsgrad in Achtel und Wolkenuntergrenze
So, 23.09. 6:00 keine Wolken
So, 23.09. 5:50 keine Wolken
So, 23.09. 5:40 1(1140m) 2(1500m) 2(8400m)
So, 23.09. 5:30 4(1170m) 7(1500m) 7(8400m)
So, 23.09. 5:20 4(1170m) 7(1500m) 7(8400m)
So, 23.09. 5:10 5(1170m) 6(1500m)
So, 23.09. 5:00 2(1170m) 3(1500m)
So, 23.09. 4:30 keine Wolken
So, 23.09. 4:00 2(1800m)
So, 23.09. 3:30 1(1410m) 4(1500m) 9
So, 23.09. 3:00 1(900m) 3(1410m) 4(1800m)
Ortszeit Luftdruck NN (hPa) Tendenz (hPa in 3 Std.)
So, 23.09. 2:00 1013 - 0,2
Sa, 22.09. 20:00 1013 - 0,1
Sa, 22.09. 14:00 1013 - 0,3
Sa, 22.09. 8:00 1012 + 1,8
Sa, 22.09. 2:00 1008 + 1,6
Fr, 21.09. 20:00 1005 + 2,0
Fr, 21.09. 14:00 999 - 1,8
Fr, 21.09. 8:00 1004 - 2,9
Ortszeit Luftdruck NN (hPa) Tendenz (hPa in 3 Std.)
So, 23.09. 6:00 1013 - 0,9
So, 23.09. 5:50 1013 keine Meldung
So, 23.09. 5:40 1013 keine Meldung
So, 23.09. 5:30 1013 - 0,5
So, 23.09. 5:20 1013 keine Meldung
So, 23.09. 5:10 1013 keine Meldung
So, 23.09. 5:00 1013 - 0,6
So, 23.09. 4:30 1013 - 0,3
So, 23.09. 4:00 1013 - 0,3
So, 23.09. 3:30 1013 - 0,3
So, 23.09. 3:00 1013 - 0,1
Ortszeit Schneehöhe (cm)
So, 23.09. 2:00 -
Sa, 22.09. 20:00 -
Sa, 22.09. 14:00 -
Sa, 22.09. 8:00 -
Sa, 22.09. 2:00 -
Fr, 21.09. 20:00 -
Fr, 21.09. 14:00 -
Fr, 21.09. 8:00 -
Ortszeit Schneehöhe (cm)
So, 23.09. 6:00 -
So, 23.09. 5:50 -
So, 23.09. 5:40 -
So, 23.09. 5:30 -
So, 23.09. 5:20 -
So, 23.09. 5:10 -
So, 23.09. 5:00 -
So, 23.09. 4:30 -
So, 23.09. 4:00 -
So, 23.09. 3:30 -
So, 23.09. 3:00 -
Link zu dieser Seite / Seite empfehlen

Das Wetter in ...